createdAt,value
2017-05-21T00:00:13.250Z,88.18
2017-05-21T00:00:54.238Z,88.37
2017-05-21T00:01:34.714Z,88.93
2017-05-21T00:02:15.175Z,88.65
2017-05-21T00:02:55.659Z,88.18
2017-05-21T00:03:36.834Z,88.27
2017-05-21T00:04:17.311Z,87.89
2017-05-21T00:04:57.800Z,88.18
2017-05-21T00:05:38.276Z,87.89
2017-05-21T00:06:18.765Z,88.08
2017-05-21T00:06:59.245Z,87.98
2017-05-21T00:07:39.719Z,87.98
2017-05-21T00:08:20.206Z,87.89
2017-05-21T00:09:00.696Z,86.88
2017-05-21T00:09:41.206Z,87.23
2017-05-21T00:10:21.669Z,87.23
2017-05-21T00:11:02.153Z,87.07
2017-05-21T00:11:42.674Z,86.84
2017-05-21T00:12:23.150Z,87.17
2017-05-21T00:13:03.632Z,87.07
2017-05-21T00:13:44.114Z,86.84
2017-05-21T00:14:24.620Z,86.94
2017-05-21T00:15:05.069Z,86.94
2017-05-21T00:15:45.554Z,87.51
2017-05-21T00:16:26.051Z,87.51
2017-05-21T00:17:06.546Z,87.6
2017-05-21T00:17:47.034Z,87.79
2017-05-21T00:18:27.518Z,87.32
2017-05-21T00:19:08.016Z,87.51
2017-05-21T00:19:48.513Z,87.6
2017-05-21T00:20:28.996Z,87.51
2017-05-21T00:21:10.007Z,87.89
2017-05-21T00:21:50.509Z,87.89
2017-05-21T00:22:30.994Z,87.23
2017-05-21T00:23:11.492Z,88.08
2017-05-21T00:23:51.974Z,87.79
2017-05-21T00:24:32.442Z,87.79
2017-05-21T00:25:12.996Z,87.32
2017-05-21T00:25:53.458Z,87.79
2017-05-21T00:26:34.652Z,88.08
2017-05-21T00:27:15.120Z,88.6
2017-05-21T00:27:55.608Z,88.84
2017-05-21T00:28:36.059Z,89.27
2017-05-21T00:29:16.545Z,90.03
2017-05-21T00:29:57.021Z,90.51
2017-05-21T00:30:37.505Z,90.13
2017-05-21T00:31:18.909Z,90.42
2017-05-21T00:31:59.350Z,90.8
2017-05-21T00:33:51.912Z,90.13
2017-05-21T00:34:33.101Z,89.94
2017-05-21T00:35:13.605Z,89.94
2017-05-21T00:35:54.083Z,89.47
2017-05-21T00:37:46.592Z,89.18
2017-05-21T00:38:27.827Z,89.37
2017-05-21T00:39:09.107Z,89.56
2017-05-21T00:39:50.086Z,89.56
2017-05-21T00:41:42.610Z,89.75
2017-05-21T00:42:23.069Z,89.27
2017-05-21T00:43:03.568Z,89.37
2017-05-21T00:43:44.062Z,89.61
2017-05-21T00:44:24.539Z,88.79
2017-05-21T00:45:05.030Z,89.56
2017-05-21T00:45:45.522Z,89.47
2017-05-21T00:46:26.595Z,89.27
2017-05-21T00:47:07.046Z,88.93
2017-05-21T00:47:47.520Z,88.93
2017-05-21T00:48:27.978Z,88.75
2017-05-21T00:49:09.313Z,88.7
2017-05-21T00:49:49.778Z,88.99
2017-05-21T00:50:30.224Z,89.47
2017-05-21T00:52:22.894Z,90.03
2017-05-21T00:53:03.214Z,90.32
2017-05-21T00:53:43.677Z,90.42
2017-05-21T00:54:24.109Z,89.75
2017-05-21T00:55:04.563Z,90.13
2017-05-21T00:55:45.016Z,89.84
2017-05-21T00:57:37.561Z,89.94
2017-05-21T00:58:18.019Z,90.22
2017-05-21T00:58:58.461Z,90.7
2017-05-21T00:59:38.918Z,89.94
2017-05-21T01:00:19.342Z,89.75
2017-05-21T01:02:17.006Z,89.84
2017-05-21T01:02:58.388Z,88.89
2017-05-21T01:03:38.871Z,89.94
2017-05-21T01:04:19.356Z,90.42
2017-05-21T01:04:59.854Z,90.32
2017-05-21T01:05:40.346Z,91.03
2017-05-21T01:06:21.794Z,91.42
2017-05-21T01:07:02.264Z,91.61
2017-05-21T01:07:43.708Z,91.32
2017-05-21T01:08:24.192Z,91.8
2017-05-21T01:09:04.686Z,91.7
2017-05-21T01:09:45.162Z,91.22
2017-05-21T01:10:25.644Z,91.17
2017-05-21T01:11:06.136Z,91.13
2017-05-21T01:11:46.616Z,91.08
2017-05-21T01:13:45.529Z,91.22
2017-05-21T01:14:26.025Z,91.22
2017-05-21T01:15:06.547Z,91.22
2017-05-21T01:15:46.982Z,91.22
2017-05-21T01:16:28.175Z,91.51
2017-05-21T01:17:08.619Z,91.32
2017-05-21T01:17:49.099Z,91.8
2017-05-21T01:18:29.576Z,91.8
2017-05-21T01:19:10.080Z,92.08
2017-05-21T01:19:50.549Z,91.89
2017-05-21T01:20:31.039Z,92.08
2017-05-21T01:21:11.521Z,91.42
2017-05-21T01:21:51.954Z,91.03
2017-05-21T01:22:32.412Z,91.03
2017-05-21T01:23:12.861Z,91.22
2017-05-21T01:25:00.375Z,91.61
2017-05-21T01:25:40.807Z,92.36
2017-05-21T01:26:21.285Z,92.46
2017-05-21T01:28:13.803Z,92.75
2017-05-21T01:28:55.278Z,92.36
2017-05-21T01:29:35.801Z,92.84
2017-05-21T01:30:16.246Z,92.84
2017-05-21T01:30:56.741Z,93.08
2017-05-21T01:31:37.234Z,93.13
2017-05-21T01:32:17.710Z,93.23
2017-05-21T01:32:58.220Z,92.94
2017-05-21T01:33:38.679Z,92.18
2017-05-21T01:34:20.690Z,92.46
2017-05-21T01:35:01.149Z,92.27
2017-05-21T01:35:41.618Z,92.36
2017-05-21T01:37:54.301Z,92.36
2017-05-21T01:38:34.788Z,92.46
2017-05-21T01:39:15.281Z,92.84
2017-05-21T01:39:55.772Z,93.13
2017-05-21T01:40:36.259Z,92.08
2017-05-21T01:41:16.746Z,92.36
2017-05-21T01:41:57.261Z,92.46
2017-05-21T01:42:37.708Z,92.36
2017-05-21T01:43:18.154Z,92.18
2017-05-21T01:43:58.620Z,92.36
2017-05-21T01:44:39.053Z,91.89
2017-05-21T01:46:36.675Z,91.89
2017-05-21T01:47:17.154Z,91.8
2017-05-21T01:47:57.617Z,91.22
2017-05-21T01:48:38.106Z,91.42
2017-05-21T01:49:18.575Z,91.8
2017-05-21T01:49:59.060Z,91.51
2017-05-21T01:50:39.554Z,92.08
2017-05-21T01:51:20.049Z,91.51
2017-05-21T01:52:00.535Z,91.32
2017-05-21T01:52:40.991Z,91.51
2017-05-21T01:53:21.442Z,91.03
2017-05-21T01:54:01.925Z,91.13
2017-05-21T01:54:42.415Z,91.32
2017-05-21T01:55:22.931Z,90.94
2017-05-21T01:56:03.418Z,91.22
2017-05-21T01:57:55.935Z,91.8
2017-05-21T01:58:36.419Z,91.99
2017-05-21T01:59:16.955Z,91.7
2017-05-21T01:59:57.403Z,91.8
2017-05-21T02:00:37.871Z,92.13
2017-05-21T02:01:18.349Z,92.41
2017-05-21T02:01:58.839Z,92.41
2017-05-21T02:02:39.282Z,92.36
2017-05-21T02:03:19.762Z,92.13
2017-05-21T02:04:00.208Z,92.03
2017-05-21T02:04:40.661Z,91.94
2017-05-21T02:05:21.118Z,92.61
2017-05-21T02:06:01.552Z,92.13
2017-05-21T02:08:19.334Z,92.22
2017-05-21T02:08:59.819Z,92.51
2017-05-21T02:09:40.296Z,92.51
2017-05-21T02:10:20.776Z,92.13
2017-05-21T02:11:01.255Z,92.22
2017-05-21T02:11:41.726Z,92.13
2017-05-21T02:12:22.209Z,91.85
2017-05-21T02:13:03.422Z,92.22
2017-05-21T02:13:43.879Z,91.75
2017-05-21T02:14:24.370Z,91.85
2017-05-21T02:15:04.857Z,91.94
2017-05-21T02:15:46.317Z,91.85
2017-05-21T02:16:26.809Z,92.61
2017-05-21T02:17:07.282Z,92.03
2017-05-21T02:17:47.747Z,92.51
2017-05-21T02:18:28.244Z,92.32
2017-05-21T02:19:08.705Z,92.13
2017-05-21T02:19:49.742Z,92.32
2017-05-21T02:20:30.216Z,92.32
2017-05-21T02:21:10.702Z,92.65
2017-05-21T02:21:51.904Z,92.22
2017-05-21T02:22:33.323Z,92.13
2017-05-21T02:23:13.832Z,92.7
2017-05-21T02:23:54.302Z,92.8
2017-05-21T02:24:34.795Z,92.89
2017-05-21T02:25:15.265Z,92.89
2017-05-21T02:25:55.754Z,93.18
2017-05-21T02:26:36.299Z,92.89
2017-05-21T02:27:16.737Z,92.51
2017-05-21T02:27:57.203Z,92.89
2017-05-21T02:28:37.689Z,91.94
2017-05-21T02:29:18.169Z,92.32
2017-05-21T02:29:58.650Z,92.36
2017-05-21T02:30:39.736Z,92.41
2017-05-21T02:31:20.219Z,92.7
2017-05-21T02:33:17.826Z,92.41
2017-05-21T02:33:58.319Z,92.51
2017-05-21T02:34:38.811Z,92.51
2017-05-21T02:35:19.295Z,92.89
2017-05-21T02:36:00.397Z,92.13
2017-05-21T02:36:40.894Z,92.41
2017-05-21T02:37:22.234Z,92.13
2017-05-21T02:38:02.739Z,92.7
2017-05-21T02:38:43.226Z,92.32
2017-05-21T02:39:24.631Z,91.94
2017-05-21T02:40:05.110Z,91.66
2017-05-21T02:40:45.544Z,92.03
2017-05-21T02:41:26.003Z,91.18
2017-05-21T02:42:06.483Z,91.03
2017-05-21T02:42:46.971Z,89.99
2017-05-21T02:43:27.557Z,90.37
2017-05-21T02:44:07.980Z,90.04
2017-05-21T02:44:48.462Z,90.14
2017-05-21T02:45:28.939Z,90.47
2017-05-21T02:46:09.443Z,90.37
2017-05-21T02:46:49.909Z,90.33
2017-05-21T02:49:07.703Z,90.52
2017-05-21T02:49:48.181Z,90.84
2017-05-21T02:50:28.653Z,91.18
2017-05-21T02:51:09.140Z,91.13
2017-05-21T02:51:49.623Z,91.08
2017-05-21T02:52:30.102Z,90.8
2017-05-21T02:53:10.607Z,90.99
2017-05-21T02:53:51.089Z,91.47
2017-05-21T02:54:31.582Z,91.08
2017-05-21T02:55:12.093Z,92.03
2017-05-21T02:55:52.572Z,92.03
2017-05-21T02:56:33.058Z,91.85
2017-05-21T02:57:13.537Z,92.13
2017-05-21T02:57:54.030Z,91.47
2017-05-21T02:58:34.541Z,92.03
2017-05-21T02:59:15.022Z,92.03
2017-05-21T02:59:56.512Z,91.94
2017-05-21T03:00:37.012Z,92.61
2017-05-21T03:01:17.509Z,93.27
2017-05-21T03:01:57.950Z,92.7
2017-05-21T03:02:38.439Z,92.8
2017-05-21T03:03:18.931Z,92.89
2017-05-21T03:03:59.413Z,92.99
2017-05-21T03:04:39.894Z,93.08
2017-05-21T03:05:20.374Z,93.08
2017-05-21T03:06:00.857Z,93.18
2017-05-21T03:06:41.337Z,93.04
2017-05-21T03:07:21.818Z,93.7
2017-05-21T03:08:02.318Z,93.51
2017-05-21T03:08:42.830Z,93.51
2017-05-21T03:09:23.278Z,93.75
2017-05-21T03:10:04.245Z,93.6
2017-05-21T03:10:44.723Z,93.32
2017-05-21T03:11:26.006Z,93.6
2017-05-21T03:12:06.462Z,93.79
2017-05-21T03:12:46.935Z,93.46
2017-05-21T03:13:27.422Z,93.08
2017-05-21T03:14:08.702Z,93.41
2017-05-21T03:14:49.187Z,93.32
2017-05-21T03:15:29.665Z,93.79
2017-05-21T03:16:10.147Z,94.37
2017-05-21T03:16:50.633Z,93.89
2017-05-21T03:17:31.114Z,93.51
2017-05-21T03:18:11.598Z,93.51
2017-05-21T03:18:52.079Z,93.89
2017-05-21T03:19:32.533Z,93.6
2017-05-21T03:20:13.748Z,93.79
2017-05-21T03:20:54.183Z,93.6
2017-05-21T03:21:34.657Z,93.89
2017-05-21T03:22:15.094Z,94.08
2017-05-21T03:24:12.761Z,93.55
2017-05-21T03:24:53.220Z,93.41
2017-05-21T03:25:33.669Z,93.6
2017-05-21T03:26:14.113Z,93.89
2017-05-21T03:26:54.566Z,94.18
2017-05-21T03:28:52.240Z,94.46
2017-05-21T03:29:33.677Z,93.6
2017-05-21T03:30:14.132Z,94.08
2017-05-21T03:30:54.559Z,93.99
2017-05-21T03:31:35.018Z,93.6
2017-05-21T03:32:15.456Z,93.6
2017-05-21T03:32:55.925Z,93.89
2017-05-21T03:34:48.461Z,93.89
2017-05-21T03:35:28.924Z,94.08
2017-05-21T03:36:09.416Z,93.99
2017-05-21T03:36:49.887Z,93.23
2017-05-21T03:37:30.354Z,93.99
2017-05-21T03:38:10.844Z,93.51
2017-05-21T03:38:51.349Z,94.37
2017-05-21T03:39:31.840Z,93.89
2017-05-21T03:40:12.314Z,93.41
2017-05-21T03:40:52.792Z,93.51
2017-05-21T03:41:33.228Z,93.6
2017-05-21T03:42:13.687Z,93.6
2017-05-21T03:42:54.147Z,93.79
2017-05-21T03:43:34.574Z,93.23
2017-05-21T03:44:14.985Z,93.32
2017-05-21T03:44:55.446Z,93.51
2017-05-21T03:45:35.884Z,93.04
2017-05-21T03:46:16.311Z,93.13
2017-05-21T03:46:56.773Z,93.6
2017-05-21T03:47:37.223Z,93.23
2017-05-21T03:48:17.674Z,93.89
2017-05-21T03:48:58.102Z,94.08
2017-05-21T03:51:11.741Z,93.6
2017-05-21T03:51:52.259Z,94.08
2017-05-21T03:52:32.705Z,93.41
2017-05-21T03:53:13.185Z,93.51
2017-05-21T03:53:53.667Z,94.08
2017-05-21T03:54:34.148Z,94.27
2017-05-21T03:55:14.667Z,93.41
2017-05-21T03:55:56.025Z,93.6
2017-05-21T03:56:36.507Z,93.41
2017-05-21T03:57:16.998Z,93.32
2017-05-21T03:57:57.517Z,93.6
2017-05-21T03:58:37.996Z,93.79
2017-05-21T03:59:18.472Z,93.7
2017-05-21T03:59:58.935Z,93.51
2017-05-21T04:00:39.422Z,93.89
2017-05-21T04:01:19.907Z,94.37
2017-05-21T04:02:00.369Z,93.99
2017-05-21T04:02:40.834Z,93.7
2017-05-21T04:03:21.307Z,93.41
2017-05-21T04:04:01.790Z,93.51
2017-05-21T04:04:42.285Z,93.6
2017-05-21T04:05:22.759Z,93.89
2017-05-21T04:06:03.242Z,93.89
2017-05-21T04:06:43.730Z,93.41
2017-05-21T04:07:24.178Z,93.04
2017-05-21T04:08:04.648Z,92.94
2017-05-21T04:08:45.140Z,93.04
2017-05-21T04:09:25.626Z,93.04
2017-05-21T04:10:06.108Z,92.94
2017-05-21T04:10:46.593Z,93.13
2017-05-21T04:11:27.072Z,93.13
2017-05-21T04:12:07.556Z,93.04
2017-05-21T04:12:48.068Z,93.13
2017-05-21T04:15:00.764Z,92.75
2017-05-21T04:15:42.068Z,92.66
2017-05-21T04:16:22.555Z,92.94
2017-05-21T04:17:03.025Z,92.18
2017-05-21T04:17:43.521Z,92.41
2017-05-21T04:18:24.012Z,92.27
2017-05-21T04:19:04.501Z,92.41
2017-05-21T04:19:45.736Z,92.13
2017-05-21T04:20:26.276Z,91.75
2017-05-21T04:21:06.761Z,92.61
2017-05-21T04:21:47.248Z,91.85
2017-05-21T04:22:27.733Z,91.47
2017-05-21T04:23:08.207Z,91.66
2017-05-21T04:23:48.698Z,91.75
2017-05-21T04:24:29.180Z,92.03
2017-05-21T04:25:09.660Z,91.66
2017-05-21T04:27:07.962Z,90.89
2017-05-21T04:27:48.441Z,90.89
2017-05-21T04:28:28.907Z,90.89
2017-05-21T04:29:09.392Z,90.99
2017-05-21T04:29:50.666Z,91.08
2017-05-21T04:30:31.152Z,90.04
2017-05-21T04:31:11.598Z,90.42
2017-05-21T04:31:52.086Z,90.23
2017-05-21T04:32:32.571Z,90.23
2017-05-21T04:33:13.064Z,90.23
2017-05-21T04:35:25.766Z,90.23
2017-05-21T04:36:06.235Z,90.23
2017-05-21T04:36:46.736Z,89.75
2017-05-21T04:37:27.214Z,89.56
2017-05-21T04:38:07.680Z,90.04
2017-05-21T04:38:49.986Z,89.32
2017-05-21T04:39:30.464Z,89.32
2017-05-21T04:40:10.962Z,88.75
2017-05-21T04:40:51.422Z,88.66
2017-05-21T04:41:31.905Z,88.66
2017-05-21T04:42:12.397Z,87.99
2017-05-21T04:42:52.867Z,87.9
2017-05-21T04:43:33.305Z,87.08
2017-05-21T04:44:13.738Z,87.08
2017-05-21T04:44:54.182Z,86.32
2017-05-21T04:47:11.998Z,84.36
2017-05-21T04:47:52.402Z,83.22
2017-05-21T04:48:32.838Z,83.22
2017-05-21T04:49:13.306Z,82.84
2017-05-21T04:49:53.749Z,82.08
2017-05-21T04:50:34.225Z,82.41
2017-05-21T04:51:14.674Z,81.26
2017-05-21T04:51:55.186Z,80.98
2017-05-21T04:52:35.619Z,80.41
2017-05-21T04:54:28.167Z,80.07
2017-05-21T04:55:08.648Z,79.21
2017-05-21T04:55:49.169Z,77.69
2017-05-21T04:56:30.353Z,77.87
2017-05-21T04:57:10.841Z,78.25
2017-05-21T04:57:51.291Z,78.16
2017-05-21T04:58:31.752Z,78.06
2017-05-21T04:59:12.219Z,77.3
2017-05-21T04:59:52.665Z,77.2
2017-05-21T05:01:45.236Z,75.72
2017-05-21T05:02:26.672Z,75.43
2017-05-21T05:03:07.155Z,75.34
2017-05-21T05:03:47.639Z,75.34
2017-05-21T05:04:28.160Z,74.77
2017-05-21T05:05:08.652Z,74.86
2017-05-21T05:05:49.128Z,74.52
2017-05-21T05:06:29.617Z,73.91
2017-05-21T05:07:10.123Z,74.19
2017-05-21T05:07:50.622Z,73.75
2017-05-21T05:08:31.102Z,73.66
2017-05-21T05:09:11.568Z,73.94
2017-05-21T05:09:52.032Z,73.47
2017-05-21T05:10:32.463Z,73.37
2017-05-21T05:11:13.740Z,73.56
2017-05-21T05:11:54.190Z,72.23
2017-05-21T05:12:35.233Z,73.28
2017-05-21T05:14:53.063Z,73.56
2017-05-21T05:15:33.539Z,73.94
2017-05-21T05:16:14.026Z,72.71
2017-05-21T05:16:55.273Z,72.42
2017-05-21T05:17:35.817Z,71.94
2017-05-21T05:18:16.244Z,72.07
2017-05-21T05:18:56.726Z,71.5
2017-05-21T05:19:37.211Z,71.12
2017-05-21T05:20:17.704Z,69.91
2017-05-21T05:20:58.190Z,69.43
2017-05-21T05:21:38.699Z,69.15
2017-05-21T05:22:19.185Z,69.21
2017-05-21T05:22:59.679Z,69.49
2017-05-21T05:23:40.171Z,70.64
2017-05-21T05:24:20.651Z,70.45
2017-05-21T05:25:01.139Z,69.97
2017-05-21T05:25:41.598Z,69.49
2017-05-21T05:27:39.199Z,68.96
2017-05-21T05:28:19.687Z,68.67
2017-05-21T05:29:00.162Z,68
2017-05-21T05:29:40.632Z,67.75
2017-05-21T05:30:21.118Z,67.18
2017-05-21T05:31:01.573Z,66.95
2017-05-21T05:31:42.024Z,66.99
2017-05-21T05:32:22.497Z,66.95
2017-05-21T05:33:02.942Z,66.66
2017-05-21T05:33:43.490Z,66.85
2017-05-21T05:34:23.933Z,66.5
2017-05-21T05:35:04.385Z,66.03
2017-05-21T05:36:57.000Z,65.07
2017-05-21T05:37:37.451Z,65.01
2017-05-21T05:38:17.900Z,64.98
2017-05-21T05:38:58.361Z,65.26
2017-05-21T05:39:38.841Z,65.45
2017-05-21T05:40:19.341Z,65.07
2017-05-21T05:40:59.813Z,64.53
2017-05-21T05:41:40.289Z,64.91
2017-05-21T05:42:20.778Z,64.43
2017-05-21T05:43:01.269Z,63.39
2017-05-21T05:45:19.420Z,61.6
2017-05-21T05:45:59.858Z,61.82
2017-05-21T05:46:40.338Z,61.41
2017-05-21T05:47:20.808Z,62.55
2017-05-21T05:48:01.310Z,62.74
2017-05-21T05:48:41.795Z,61.51
2017-05-21T05:49:22.281Z,61.88
2017-05-21T05:50:02.779Z,61.54
2017-05-21T05:50:43.234Z,60.51
2017-05-21T05:51:23.674Z,60.13
2017-05-21T05:52:04.130Z,60.13
2017-05-21T05:52:44.559Z,59.55
2017-05-21T05:53:25.030Z,60
2017-05-21T05:54:05.497Z,59.72
2017-05-21T05:54:45.987Z,59.84
2017-05-21T05:55:26.448Z,59.23
2017-05-21T05:56:06.898Z,59.17
2017-05-21T05:58:24.679Z,57.67
2017-05-21T05:59:05.154Z,57.57
2017-05-21T05:59:45.633Z,56.71
2017-05-21T06:00:26.127Z,56.99
2017-05-21T06:01:06.593Z,56.23
2017-05-21T06:01:47.089Z,56.54
2017-05-21T06:02:27.592Z,55.49
2017-05-21T06:03:08.078Z,55.01
2017-05-21T06:03:48.573Z,54.56
2017-05-21T06:04:29.053Z,54.01
2017-05-21T06:05:09.536Z,53.31
2017-05-21T06:05:50.008Z,53.5
2017-05-21T06:06:30.506Z,53.6
2017-05-21T06:07:10.982Z,53.79
2017-05-21T06:07:51.466Z,53.7
2017-05-21T06:08:31.945Z,54.63
2017-05-21T06:09:12.428Z,54.88
2017-05-21T06:09:52.914Z,53.15
2017-05-21T06:10:33.341Z,52.67
2017-05-21T06:12:20.799Z,52.28
2017-05-21T06:13:01.247Z,52.83
2017-05-21T06:13:41.709Z,53.22
2017-05-21T06:14:22.152Z,53.89
2017-05-21T06:15:02.573Z,54.08
2017-05-21T06:15:43.006Z,53.12
2017-05-21T06:16:23.443Z,53.22
2017-05-21T06:17:03.903Z,52.83
2017-05-21T06:17:44.408Z,52.36
2017-05-21T06:18:24.837Z,53.03
2017-05-21T06:19:05.280Z,53.22
2017-05-21T06:19:45.728Z,52.86
2017-05-21T06:20:26.182Z,52.76
2017-05-21T06:21:06.607Z,52
2017-05-21T06:21:47.126Z,52.19
2017-05-21T06:22:27.575Z,51.64
2017-05-21T06:23:08.021Z,51.54
2017-05-21T06:23:48.496Z,51.25
2017-05-21T06:24:28.927Z,50.87
2017-05-21T06:25:09.396Z,50.61
2017-05-21T06:25:49.868Z,49.57
2017-05-21T06:26:30.345Z,48.88
2017-05-21T06:27:10.802Z,48.49
2017-05-21T06:27:51.272Z,49
2017-05-21T06:29:38.829Z,48.07
2017-05-21T06:30:19.246Z,47.39
2017-05-21T06:30:59.678Z,47.68
2017-05-21T06:31:40.174Z,47.2
2017-05-21T06:32:20.671Z,47.46
2017-05-21T06:33:01.163Z,46.53
2017-05-21T06:33:41.659Z,46.62
2017-05-21T06:34:22.138Z,46.43
2017-05-21T06:35:02.596Z,46.33
2017-05-21T06:35:43.066Z,46.53
2017-05-21T06:37:55.795Z,46.14
2017-05-21T06:38:36.273Z,45.87
2017-05-21T06:39:16.718Z,45.13
2017-05-21T06:41:09.304Z,43.41
2017-05-21T06:41:49.760Z,42.47
2017-05-21T06:42:30.244Z,41.51
2017-05-21T06:44:43.074Z,40.76
2017-05-21T06:45:23.452Z,40.36
2017-05-21T06:46:03.955Z,41.39
2017-05-21T06:46:44.420Z,41.3
2017-05-21T06:47:24.863Z,41.78
2017-05-21T06:48:05.284Z,42.33
2017-05-21T06:48:45.805Z,41.88
2017-05-21T06:49:26.252Z,40.94
2017-05-21T06:50:06.720Z,41.41
2017-05-21T06:50:47.145Z,42.16
2017-05-21T06:51:27.622Z,42.16
2017-05-21T06:53:45.579Z,44.34
2017-05-21T06:54:25.878Z,44.05
2017-05-21T06:55:06.362Z,43.68
2017-05-21T06:55:46.830Z,42.65
2017-05-21T06:56:27.350Z,42.55
2017-05-21T06:57:07.831Z,42.38
2017-05-21T06:57:48.313Z,41.71
2017-05-21T06:58:28.732Z,41.05
2017-05-21T06:59:09.198Z,40.37
2017-05-21T06:59:49.654Z,40.01
2017-05-21T07:01:42.193Z,38.28
2017-05-21T07:02:22.689Z,38.58
2017-05-21T07:03:03.172Z,38.66
2017-05-21T07:03:43.656Z,38.95
2017-05-21T07:05:31.124Z,40.45
2017-05-21T07:06:11.588Z,41.39
2017-05-21T07:06:52.110Z,41.71
2017-05-21T07:07:32.605Z,41.44
2017-05-21T07:08:13.109Z,41.03
2017-05-21T07:10:25.853Z,41.39
2017-05-21T07:11:06.286Z,41.3
2017-05-21T07:11:46.770Z,41.41
2017-05-21T07:12:27.229Z,41.24
2017-05-21T07:13:07.660Z,40.36
2017-05-21T07:13:48.127Z,41.68
2017-05-21T07:14:28.612Z,42.16
2017-05-21T07:15:09.088Z,43.66
2017-05-21T07:15:49.552Z,42.46
2017-05-21T07:16:30.029Z,42.26
2017-05-21T07:18:27.740Z,40.19
2017-05-21T07:19:08.132Z,40.66
2017-05-21T07:19:48.555Z,40.3
2017-05-21T07:22:06.754Z,37.83
2017-05-21T07:22:47.178Z,38.21
2017-05-21T07:23:27.668Z,38.31
2017-05-21T07:24:08.119Z,37.37
2017-05-21T07:24:48.543Z,38.18
2017-05-21T07:25:28.985Z,38.97
2017-05-21T07:27:21.682Z,38.18
2017-05-21T07:28:01.992Z,39.64
2017-05-21T07:28:42.457Z,39.74
2017-05-21T07:30:55.161Z,37.54
2017-05-21T07:31:35.623Z,37.25
2017-05-21T07:32:16.112Z,38.41
2017-05-21T07:32:56.554Z,37.71
2017-05-21T07:33:37.024Z,38.2
2017-05-21T07:34:17.508Z,37.73
2017-05-21T07:34:57.960Z,38.54
2017-05-21T07:35:38.445Z,38.56
2017-05-21T07:36:18.899Z,38.51
2017-05-21T07:36:59.383Z,37.75
2017-05-21T07:37:39.834Z,36.13
2017-05-21T07:39:57.693Z,35.29
2017-05-21T07:40:38.140Z,34.7
2017-05-21T07:41:18.631Z,34.79
2017-05-21T07:41:59.105Z,35.08
2017-05-21T07:42:39.604Z,34.92
2017-05-21T07:43:20.089Z,35.36
2017-05-21T07:44:00.598Z,36.42
2017-05-21T07:44:41.061Z,37.35
2017-05-21T07:45:21.498Z,38.31
2017-05-21T07:46:01.965Z,38.87
2017-05-21T07:47:49.448Z,37.29
2017-05-21T07:48:29.925Z,36.9
2017-05-21T07:49:10.392Z,36.34
2017-05-21T07:49:50.880Z,36.42
2017-05-21T07:50:31.351Z,37.45
2017-05-21T07:51:11.808Z,38.1
2017-05-21T07:51:52.263Z,38.78
2017-05-21T07:52:32.696Z,38.29
2017-05-21T07:53:13.980Z,37.87
2017-05-21T07:53:54.431Z,36.16
2017-05-21T07:54:34.926Z,35.29
2017-05-21T07:56:47.690Z,32.86
2017-05-21T07:57:28.125Z,31.23
2017-05-21T07:58:08.613Z,32.07
2017-05-21T07:58:49.107Z,31.5
2017-05-21T08:01:06.934Z,30.92
2017-05-21T08:01:47.411Z,31.74
2017-05-21T08:02:27.965Z,32.91
2017-05-21T08:03:08.384Z,32.07
2017-05-21T08:03:48.811Z,31.68
2017-05-21T08:04:30.691Z,30.54
2017-05-21T08:06:43.437Z,31.2
2017-05-21T08:07:23.916Z,31.97
2017-05-21T08:08:04.362Z,30.54
2017-05-21T08:08:44.838Z,30.52
2017-05-21T08:09:25.316Z,30.55
2017-05-21T08:10:05.782Z,29.4
2017-05-21T08:10:46.232Z,28.59
2017-05-21T08:11:27.207Z,32.09
2017-05-21T08:12:07.669Z,33.94
2017-05-21T08:12:48.135Z,33.29
2017-05-21T08:13:28.587Z,31.49
2017-05-21T08:14:09.039Z,30.98
2017-05-21T08:14:49.541Z,30.6
2017-05-21T08:15:30.010Z,30.34
2017-05-21T08:16:10.473Z,29.66
2017-05-21T08:16:50.962Z,29.85
2017-05-21T08:17:31.420Z,29.79
2017-05-21T08:19:44.181Z,29
2017-05-21T08:20:24.663Z,30.15
2017-05-21T08:21:05.103Z,30.13
2017-05-21T08:21:45.601Z,30.04
2017-05-21T08:22:26.043Z,30.51
2017-05-21T08:24:44.168Z,32.68
2017-05-21T08:25:24.623Z,33.02
2017-05-21T08:26:05.141Z,33.44
2017-05-21T08:26:45.589Z,33.45
2017-05-21T08:27:26.012Z,33.37
2017-05-21T08:29:13.534Z,33.17
2017-05-21T08:29:53.996Z,34.86
2017-05-21T08:30:34.481Z,34.78
2017-05-21T08:32:32.129Z,34.55
2017-05-21T08:33:12.635Z,35.26
2017-05-21T08:33:53.137Z,34.2
2017-05-21T08:34:33.613Z,32.59
2017-05-21T08:35:14.101Z,31.46
2017-05-21T08:35:55.182Z,31.09
2017-05-21T08:36:35.656Z,30.29
2017-05-21T08:37:16.153Z,30.2
2017-05-21T08:37:56.656Z,30.54
2017-05-21T08:38:37.168Z,32.1
2017-05-21T08:39:18.596Z,30.68
2017-05-21T08:39:59.904Z,29.06
2017-05-21T08:41:47.426Z,25.54
2017-05-21T08:42:27.922Z,25.92
2017-05-21T08:43:08.404Z,26.49
2017-05-21T08:43:48.895Z,26.87
2017-05-21T08:44:29.422Z,27.46
2017-05-21T08:45:09.895Z,27.56
2017-05-21T08:45:50.946Z,27.36
2017-05-21T08:46:31.411Z,29.41
2017-05-21T08:47:11.854Z,30.02
2017-05-21T08:47:52.387Z,30.47
2017-05-21T08:48:32.773Z,30.96
2017-05-21T08:49:13.233Z,28.69
2017-05-21T08:49:53.695Z,27.33
2017-05-21T08:50:34.176Z,26.96
2017-05-21T08:51:14.655Z,25.84
2017-05-21T08:51:55.129Z,24.12
2017-05-21T08:52:35.609Z,23.15
2017-05-21T08:53:16.111Z,23.8
2017-05-21T08:55:28.897Z,24.1
2017-05-21T08:56:09.322Z,24.37
2017-05-21T08:56:49.808Z,24.21
2017-05-21T08:57:30.260Z,24.17
2017-05-21T08:58:10.689Z,26.72
2017-05-21T09:00:28.482Z,28.73
2017-05-21T09:01:08.943Z,28.36
2017-05-21T09:01:49.379Z,28.07
2017-05-21T09:02:29.820Z,29.22
2017-05-21T09:03:10.259Z,28.66
2017-05-21T09:03:50.818Z,27.7
2017-05-21T09:04:31.251Z,27.32
2017-05-21T09:05:11.702Z,26.85
2017-05-21T09:06:59.537Z,27.24
2017-05-21T09:07:39.967Z,26.67
2017-05-21T09:08:20.428Z,25.74
2017-05-21T09:09:00.911Z,24.38
2017-05-21T09:09:41.373Z,24.1
2017-05-21T09:10:21.813Z,24.29
2017-05-21T09:11:02.292Z,23.91
2017-05-21T09:11:42.732Z,24.04
2017-05-21T09:12:23.157Z,22.51
2017-05-21T09:14:36.233Z,24.19
2017-05-21T09:15:16.685Z,22.87
2017-05-21T09:15:57.145Z,21.69
2017-05-21T09:16:37.586Z,22
2017-05-21T09:18:25.050Z,20.48
2017-05-21T09:19:05.530Z,18.44
2017-05-21T09:19:46.002Z,17.19
2017-05-21T09:20:26.529Z,17.16
2017-05-21T09:21:07.014Z,17.84
2017-05-21T09:22:54.527Z,18.82
2017-05-21T09:23:34.983Z,17.17
2017-05-21T09:25:32.635Z,17.09
2017-05-21T09:26:13.114Z,16.39
2017-05-21T09:26:53.612Z,17.17
2017-05-21T09:27:34.093Z,18.11
2017-05-21T09:28:14.559Z,19.64
2017-05-21T09:30:12.184Z,18.51
2017-05-21T09:30:52.681Z,18.21
2017-05-21T09:31:33.155Z,18.3
2017-05-21T09:32:13.634Z,17.35
2017-05-21T09:32:54.126Z,17.24
2017-05-21T09:33:34.633Z,17.44
2017-05-21T09:34:15.086Z,17.52
2017-05-21T09:34:55.571Z,18.38
2017-05-21T09:35:36.079Z,18.88
2017-05-21T09:36:16.546Z,18.88
2017-05-21T09:36:57.024Z,18.3
2017-05-21T09:37:37.503Z,17.13
2017-05-21T09:38:17.980Z,17.13
2017-05-21T09:38:58.439Z,15.5
2017-05-21T09:40:45.942Z,14.43
2017-05-21T09:41:26.401Z,16.09
2017-05-21T09:42:07.481Z,16.37
2017-05-21T09:42:47.884Z,16.66
2017-05-21T09:43:28.321Z,17.63
2017-05-21T09:44:08.774Z,16.39
2017-05-21T09:44:49.245Z,16.86
2017-05-21T09:46:41.881Z,15.25
2017-05-21T09:47:22.296Z,14.37
2017-05-21T09:48:02.787Z,14.28
2017-05-21T09:48:43.225Z,15.24
2017-05-21T09:50:30.735Z,15.7
2017-05-21T09:51:11.180Z,17.14
2017-05-21T09:51:51.665Z,17.82
2017-05-21T09:52:32.108Z,18.57
2017-05-21T09:53:12.561Z,18.09
2017-05-21T09:53:53.025Z,18.27
2017-05-21T09:56:05.876Z,19.04
2017-05-21T09:56:46.285Z,20.21
2017-05-21T09:57:26.772Z,19.34
2017-05-21T09:58:07.256Z,20.68
2017-05-21T09:58:47.795Z,20.84
2017-05-21T09:59:28.209Z,21.8
2017-05-21T10:00:08.695Z,20.65
2017-05-21T10:00:49.168Z,20.95
2017-05-21T10:01:30.260Z,19.3
2017-05-21T10:02:10.706Z,19.12
2017-05-21T10:04:08.365Z,19.17
2017-05-21T10:04:48.819Z,18.99
2017-05-21T10:06:46.438Z,18.91
2017-05-21T10:07:26.904Z,19.29
2017-05-21T10:08:07.395Z,20.46
2017-05-21T10:08:47.874Z,20.65
2017-05-21T10:09:28.387Z,20.82
2017-05-21T10:11:26.003Z,22.94
2017-05-21T10:12:06.413Z,22.65
2017-05-21T10:14:04.053Z,20.64
2017-05-21T10:14:44.465Z,19.51
2017-05-21T10:16:57.206Z,16.55
2017-05-21T10:17:37.680Z,16.42
2017-05-21T10:18:18.169Z,16.54